Fairplay, Indiana
Current Conditions -  °F | °C
As of 6:35 AM on Tuesday 21 Oct 2014 (Local Time) from KDCY Reporting Station
Scattered Clouds Scattered Clouds  
Wind Chill: 44°   Ceiling: Unl
Heat Index: 44°   Visibility: 10mi
Dew Point: 44°   Wind: 3mph
Humidity: 98%   Direction: 320°NW
Pressure: 30.03"   Gusts: NA
Location:  39.0399°N, 87.0482°W
Report Text: KDCY 211035Z AUTO 32003KT 10SM SCT055 07/07 A3003 RMK AO2 T00690066
Loading
Personal Weather Stations






























Interactive Weather Map
Tropical Storm Tracking
New forecast layout! Learn more

10-Day Weather Forecast

Advertisements
Track Severe Weather on mobile